createdAt,value
2022-12-15T00:00:35.650Z,8.68
2022-12-15T00:03:26.074Z,9.45
2022-12-15T00:06:11.887Z,7.63
2022-12-15T00:08:59.786Z,7.90
2022-12-15T00:11:45.866Z,6.80
2022-12-15T00:14:31.383Z,9.95
2022-12-15T00:17:17.259Z,7.22
2022-12-15T00:20:03.212Z,7.78
2022-12-15T00:22:48.990Z,8.68
2022-12-15T00:25:36.064Z,8.73
2022-12-15T00:28:21.835Z,8.77
2022-12-15T00:31:08.138Z,8.65
2022-12-15T00:33:54.007Z,8.18
2022-12-15T00:36:40.026Z,8.73
2022-12-15T00:39:08.541Z,9.50
2022-12-15T00:41:38.251Z,8.90
2022-12-15T00:44:06.895Z,9.43
2022-12-15T00:46:53.516Z,10.07
2022-12-15T00:49:39.840Z,8.13
2022-12-15T00:52:25.643Z,9.35
2022-12-15T00:55:11.624Z,8.90
2022-12-15T00:57:59.315Z,8.63
2022-12-15T01:00:45.272Z,8.43
2022-12-15T01:03:34.851Z,9.02
2022-12-15T01:06:25.884Z,8.75
2022-12-15T01:09:11.706Z,9.68
2022-12-15T01:11:57.722Z,8.65
2022-12-15T01:14:45.223Z,10.20
2022-12-15T01:17:31.739Z,8.48
2022-12-15T01:20:17.596Z,9.60
2022-12-15T01:22:47.577Z,9.00
2022-12-15T01:25:17.870Z,9.32
2022-12-15T01:27:47.406Z,8.60
2022-12-15T01:30:21.460Z,9.48
2022-12-15T01:32:50.023Z,10.90
2022-12-15T01:35:19.813Z,9.75
2022-12-15T01:37:49.859Z,9.93
2022-12-15T01:40:41.508Z,12.05
2022-12-15T01:43:16.158Z,10.40
2022-12-15T01:45:56.749Z,8.98
2022-12-15T01:48:48.623Z,8.95
2022-12-15T01:51:23.764Z,10.20
2022-12-15T01:54:01.171Z,9.07
2022-12-15T01:56:37.255Z,11.20
2022-12-15T01:59:10.297Z,10.15
2022-12-15T02:01:40.406Z,10.40
2022-12-15T02:04:12.299Z,10.18
2022-12-15T02:06:41.126Z,11.55
2022-12-15T02:09:10.006Z,11.88
2022-12-15T02:11:57.469Z,11.93
2022-12-15T02:14:41.613Z,12.02
2022-12-15T02:17:23.738Z,13.55
2022-12-15T02:20:42.865Z,11.70
2022-12-15T02:24:10.805Z,11.65
2022-12-15T02:27:13.888Z,10.75
2022-12-15T02:30:16.839Z,10.57
2022-12-15T02:32:57.677Z,10.48
2022-12-15T02:35:33.352Z,10.48
2022-12-15T02:38:02.315Z,10.75
2022-12-15T02:40:30.810Z,10.35
2022-12-15T02:43:01.103Z,10.75
2022-12-15T02:45:37.544Z,10.50
2022-12-15T02:48:23.066Z,11.77
2022-12-15T02:51:12.644Z,10.77
2022-12-15T02:54:04.579Z,9.77
2022-12-15T02:56:40.705Z,10.50
2022-12-15T02:59:16.388Z,10.98
2022-12-15T03:01:55.141Z,11.40
2022-12-15T03:04:23.977Z,12.95
2022-12-15T03:07:00.891Z,10.32
2022-12-15T03:09:30.061Z,11.65
2022-12-15T03:11:58.908Z,10.23
2022-12-15T03:14:27.310Z,12.45
2022-12-15T03:16:58.425Z,12.10
2022-12-15T03:19:27.399Z,10.95
2022-12-15T03:21:55.885Z,11.30
2022-12-15T03:24:24.538Z,11.18
2022-12-15T03:26:53.317Z,11.77
2022-12-15T03:29:21.697Z,10.68
2022-12-15T03:31:50.366Z,10.88
2022-12-15T03:34:20.592Z,11.95
2022-12-15T03:36:49.248Z,11.18
2022-12-15T03:39:17.710Z,12.13
2022-12-15T03:41:46.239Z,11.00
2022-12-15T03:44:15.329Z,11.02
2022-12-15T03:46:43.586Z,11.60
2022-12-15T03:49:12.119Z,11.88
2022-12-15T03:51:41.891Z,11.55
2022-12-15T03:54:10.343Z,10.57
2022-12-15T03:56:38.786Z,11.43
2022-12-15T03:59:07.912Z,11.00
2022-12-15T04:01:38.189Z,10.68
2022-12-15T04:04:06.896Z,9.45
2022-12-15T04:06:35.583Z,12.18
2022-12-15T04:09:06.347Z,11.10
2022-12-15T04:11:34.757Z,10.90
2022-12-15T04:14:03.336Z,12.35
2022-12-15T04:16:32.034Z,12.60
2022-12-15T04:19:18.015Z,10.57
2022-12-15T04:21:46.444Z,10.43
2022-12-15T04:24:33.423Z,12.50
2022-12-15T04:27:19.083Z,12.13
2022-12-15T04:30:05.065Z,10.90
2022-12-15T04:32:50.645Z,14.75
2022-12-15T04:35:36.472Z,11.77
2022-12-15T04:38:22.246Z,11.32
2022-12-15T04:41:09.650Z,10.88
2022-12-15T04:43:55.595Z,11.50
2022-12-15T04:46:41.652Z,12.77
2022-12-15T04:49:27.832Z,11.63
2022-12-15T04:52:13.831Z,13.45
2022-12-15T04:54:59.964Z,10.50
2022-12-15T04:57:46.921Z,13.48
2022-12-15T05:00:33.320Z,12.65
2022-12-15T05:03:23.962Z,13.15
2022-12-15T05:06:09.773Z,10.20
2022-12-15T05:08:55.964Z,11.57
2022-12-15T05:11:42.330Z,12.65
2022-12-15T05:14:30.119Z,12.02
2022-12-15T05:17:16.289Z,12.75
2022-12-15T05:20:01.972Z,11.57
2022-12-15T05:22:48.020Z,10.85
2022-12-15T05:25:33.768Z,11.25
2022-12-15T05:28:19.365Z,14.15
2022-12-15T05:31:06.546Z,11.60
2022-12-15T05:33:34.988Z,12.15
2022-12-15T05:36:03.423Z,12.90
2022-12-15T05:38:31.894Z,12.90
2022-12-15T05:41:01.062Z,12.40
2022-12-15T05:43:30.844Z,13.82
2022-12-15T05:46:05.085Z,13.18
2022-12-15T05:48:33.469Z,12.43
2022-12-15T05:51:05.985Z,11.32
2022-12-15T05:53:35.029Z,14.32
2022-12-15T05:56:04.380Z,10.80
2022-12-15T05:58:33.093Z,12.90
2022-12-15T06:01:08.167Z,12.38
2022-12-15T06:03:36.594Z,12.10
2022-12-15T06:06:08.533Z,11.68
2022-12-15T06:08:40.250Z,12.98
2022-12-15T06:11:11.007Z,13.45
2022-12-15T06:13:39.506Z,12.57
2022-12-15T06:16:13.402Z,13.68
2022-12-15T06:18:44.363Z,11.70
2022-12-15T06:21:20.874Z,11.05
2022-12-15T06:23:49.503Z,12.40
2022-12-15T06:26:21.567Z,13.40
2022-12-15T06:28:50.795Z,14.45
2022-12-15T06:31:22.870Z,13.85
2022-12-15T06:33:57.509Z,12.90
2022-12-15T06:36:30.925Z,14.30
2022-12-15T06:39:01.295Z,13.80
2022-12-15T06:41:31.062Z,11.82
2022-12-15T06:44:00.594Z,14.10
2022-12-15T06:46:35.014Z,14.98
2022-12-15T06:49:03.670Z,13.75
2022-12-15T06:51:32.713Z,12.93
2022-12-15T06:54:01.759Z,11.80
2022-12-15T06:56:34.835Z,12.77
2022-12-15T06:59:05.080Z,14.43
2022-12-15T07:01:35.657Z,11.90
2022-12-15T07:04:05.788Z,13.07
2022-12-15T07:06:37.460Z,13.15
2022-12-15T07:09:10.444Z,12.93
2022-12-15T07:11:38.844Z,13.98
2022-12-15T07:14:07.255Z,15.45
2022-12-15T07:16:36.982Z,14.65
2022-12-15T07:19:05.410Z,14.30
2022-12-15T07:21:33.995Z,14.93
2022-12-15T07:24:02.990Z,15.00
2022-12-15T07:26:31.592Z,14.18
2022-12-15T07:28:59.892Z,14.30
2022-12-15T07:31:28.485Z,12.25
2022-12-15T07:33:58.837Z,14.98
2022-12-15T07:36:28.683Z,15.05
2022-12-15T07:39:01.509Z,14.63
2022-12-15T07:41:30.353Z,15.75
2022-12-15T07:43:59.808Z,14.13
2022-12-15T07:46:29.189Z,14.82
2022-12-15T07:48:59.138Z,14.52
2022-12-15T07:51:27.660Z,12.55
2022-12-15T07:53:56.210Z,14.25
2022-12-15T07:56:24.768Z,16.80
2022-12-15T07:58:53.221Z,13.98
2022-12-15T08:01:21.768Z,14.70
2022-12-15T08:03:50.737Z,12.90
2022-12-15T08:06:20.537Z,15.85
2022-12-15T08:08:49.960Z,15.90
2022-12-15T08:11:21.909Z,15.15
2022-12-15T08:14:10.385Z,14.70
2022-12-15T08:16:39.837Z,15.05
2022-12-15T08:19:11.850Z,17.00
2022-12-15T08:21:45.462Z,15.23
2022-12-15T08:24:14.828Z,16.50
2022-12-15T08:26:50.565Z,17.58
2022-12-15T08:32:08.153Z,17.45
2022-12-15T08:34:36.773Z,17.48
2022-12-15T08:37:06.506Z,16.65
2022-12-15T08:39:35.006Z,15.30
2022-12-15T08:42:03.371Z,17.33
2022-12-15T08:44:31.891Z,20.73
2022-12-15T08:47:00.361Z,16.20
2022-12-15T08:49:28.672Z,17.92
2022-12-15T08:51:57.038Z,20.95
2022-12-15T08:54:26.772Z,19.17
2022-12-15T08:56:55.222Z,19.55
2022-12-15T08:59:24.030Z,17.60
2022-12-15T09:01:52.658Z,19.85
2022-12-15T09:04:21.811Z,19.08
2022-12-15T09:06:50.672Z,19.25
2022-12-15T09:09:20.179Z,19.15
2022-12-15T09:11:50.298Z,18.73
2022-12-15T09:14:24.143Z,19.10
2022-12-15T09:25:46.586Z,19.15
2022-12-15T09:44:35.123Z,20.80
2022-12-15T09:47:14.327Z,25.00
2022-12-15T09:49:55.442Z,22.58
2022-12-15T09:55:28.765Z,20.23
2022-12-15T09:58:06.077Z,23.40
2022-12-15T10:00:52.222Z,24.55
2022-12-15T10:03:53.106Z,25.05
2022-12-15T10:09:20.649Z,22.98
2022-12-15T10:11:55.528Z,21.58
2022-12-15T10:14:33.388Z,25.63
2022-12-15T10:17:21.680Z,27.13
2022-12-15T10:19:56.707Z,27.27
2022-12-15T10:22:28.708Z,26.52
2022-12-15T10:25:09.802Z,24.70
2022-12-15T10:28:26.415Z,25.15
2022-12-15T10:31:02.381Z,23.23
2022-12-15T10:33:36.405Z,26.55
2022-12-15T10:36:11.937Z,25.58
2022-12-15T10:38:43.677Z,26.30
2022-12-15T10:41:15.827Z,29.20
2022-12-15T10:43:46.949Z,28.05
2022-12-15T10:46:19.920Z,24.67
2022-12-15T10:48:52.003Z,27.38
2022-12-15T10:51:26.008Z,26.60
2022-12-15T10:54:04.758Z,23.25
2022-12-15T10:56:35.206Z,25.33
2022-12-15T10:59:15.620Z,23.95
2022-12-15T11:01:44.309Z,24.85
2022-12-15T11:04:28.903Z,25.38
2022-12-15T11:07:02.717Z,25.35
2022-12-15T11:09:36.661Z,24.00
2022-12-15T11:12:36.512Z,22.95
2022-12-15T11:15:34.074Z,24.45
2022-12-15T11:18:11.346Z,22.17
2022-12-15T11:20:48.708Z,24.50
2022-12-15T11:23:25.872Z,24.27
2022-12-15T11:26:04.919Z,23.80
2022-12-15T11:28:45.119Z,22.83
2022-12-15T11:31:25.330Z,22.83
2022-12-15T11:33:54.718Z,22.47
2022-12-15T11:36:42.881Z,24.50
2022-12-15T11:39:24.080Z,24.57
2022-12-15T11:42:00.749Z,22.23
2022-12-15T11:44:35.078Z,21.47
2022-12-15T11:47:16.937Z,22.70
2022-12-15T11:50:10.737Z,19.47
2022-12-15T11:53:15.979Z,22.30
2022-12-15T11:55:58.054Z,21.50
2022-12-15T11:58:56.919Z,19.90
2022-12-15T12:02:00.758Z,20.47
2022-12-15T12:04:40.459Z,20.40
2022-12-15T12:07:19.179Z,18.50
2022-12-15T12:10:01.440Z,20.20
2022-12-15T12:12:38.075Z,20.60
2022-12-15T12:15:25.602Z,20.37
2022-12-15T12:17:59.314Z,18.77
2022-12-15T12:20:39.083Z,20.90
2022-12-15T12:23:18.359Z,17.57
2022-12-15T12:28:58.158Z,18.77
2022-12-15T12:31:36.367Z,19.70
2022-12-15T12:34:13.413Z,18.50
2022-12-15T12:36:43.401Z,19.13
2022-12-15T12:39:20.958Z,18.73
2022-12-15T12:42:01.975Z,20.17
2022-12-15T12:44:34.510Z,17.57
2022-12-15T12:47:15.130Z,17.97
2022-12-15T12:49:46.917Z,16.97
2022-12-15T12:52:26.780Z,17.90
2022-12-15T12:55:01.721Z,18.33
2022-12-15T12:57:42.877Z,18.70
2022-12-15T13:00:24.067Z,18.40
2022-12-15T13:03:19.079Z,19.27
2022-12-15T13:05:51.697Z,19.10
2022-12-15T13:08:51.932Z,19.73
2022-12-15T13:12:14.984Z,18.20
2022-12-15T13:14:51.629Z,18.20
2022-12-15T13:17:31.993Z,23.20
2022-12-15T13:20:27.678Z,18.37
2022-12-15T13:23:13.006Z,18.57
2022-12-15T13:25:50.352Z,18.17
2022-12-15T13:28:54.032Z,19.33
2022-12-15T13:31:41.787Z,19.97
2022-12-15T13:34:24.108Z,19.83
2022-12-15T13:37:01.281Z,21.70
2022-12-15T13:39:59.577Z,18.80
2022-12-15T13:42:41.542Z,17.47
2022-12-15T13:45:45.303Z,19.20
2022-12-15T13:48:33.757Z,19.00
2022-12-15T13:51:28.065Z,18.67
2022-12-15T13:54:03.087Z,17.77
2022-12-15T13:56:54.080Z,16.40
2022-12-15T13:59:35.209Z,17.57
2022-12-15T14:02:03.779Z,18.30
2022-12-15T14:04:33.769Z,18.37
2022-12-15T14:07:03.775Z,17.70
2022-12-15T14:09:35.543Z,17.70
2022-12-15T14:12:07.179Z,19.40
2022-12-15T14:14:38.801Z,25.83
2022-12-15T14:17:10.476Z,20.30
2022-12-15T14:19:42.656Z,19.00
2022-12-15T14:22:29.474Z,18.83
2022-12-15T14:25:05.177Z,17.97
2022-12-15T14:27:34.913Z,17.33
2022-12-15T14:30:24.353Z,17.10
2022-12-15T14:32:58.529Z,17.60
2022-12-15T14:35:32.711Z,19.67
2022-12-15T14:38:07.000Z,19.40
2022-12-15T14:40:38.117Z,18.40
2022-12-15T14:43:10.485Z,20.57
2022-12-15T14:45:39.385Z,18.17
2022-12-15T14:48:40.140Z,18.37
2022-12-15T14:51:04.424Z,17.57
2022-12-15T14:53:35.776Z,17.27
2022-12-15T14:56:30.561Z,20.17
2022-12-15T14:59:04.276Z,18.43
2022-12-15T15:01:40.341Z,19.80
2022-12-15T15:03:03.794Z,22.10
2022-12-15T15:03:11.640Z,18.20
2022-12-15T15:04:26.277Z,20.47
2022-12-15T15:06:58.860Z,20.70
2022-12-15T15:09:30.097Z,19.93
2022-12-15T15:12:03.792Z,19.80
2022-12-15T15:14:35.395Z,19.30
2022-12-15T15:17:10.355Z,20.77
2022-12-15T15:19:46.808Z,18.73
2022-12-15T15:22:32.195Z,21.63
2022-12-15T15:25:00.611Z,19.40
2022-12-15T15:27:37.086Z,20.57
2022-12-15T15:30:19.604Z,21.73
2022-12-15T15:32:54.114Z,19.00
2022-12-15T15:35:24.950Z,20.10
2022-12-15T15:37:57.018Z,22.60
2022-12-15T15:40:25.332Z,21.23
2022-12-15T15:42:53.584Z,19.80
2022-12-15T15:45:22.196Z,20.47
2022-12-15T15:47:56.176Z,21.57
2022-12-15T15:50:30.639Z,23.40
2022-12-15T15:53:00.416Z,22.40
2022-12-15T15:55:39.428Z,22.43
2022-12-15T15:58:12.804Z,21.10
2022-12-15T16:00:42.017Z,22.40
2022-12-15T16:03:10.859Z,21.27
2022-12-15T16:05:40.622Z,22.67
2022-12-15T16:08:17.295Z,22.00
2022-12-15T16:10:48.266Z,23.30
2022-12-15T16:13:25.667Z,24.00
2022-12-15T16:15:54.794Z,24.48
2022-12-15T16:18:23.146Z,22.48
2022-12-15T16:20:53.153Z,22.08
2022-12-15T16:23:27.584Z,23.45
2022-12-15T16:25:58.716Z,23.92
2022-12-15T16:28:31.033Z,26.40
2022-12-15T16:31:01.391Z,25.33
2022-12-15T16:33:29.868Z,26.15
2022-12-15T16:35:59.402Z,24.13
2022-12-15T16:38:31.899Z,24.60
2022-12-15T16:41:07.647Z,26.17
2022-12-15T16:43:40.369Z,25.00
2022-12-15T16:46:14.426Z,26.30
2022-12-15T16:48:43.377Z,25.17
2022-12-15T16:51:28.079Z,25.15
2022-12-15T16:53:57.852Z,26.00
2022-12-15T16:56:26.299Z,24.60
2022-12-15T16:59:15.490Z,25.85
2022-12-15T17:01:43.218Z,27.60
2022-12-15T17:04:11.760Z,28.17
2022-12-15T17:06:40.280Z,29.10
2022-12-15T17:09:15.464Z,28.55
2022-12-15T17:11:43.888Z,26.75
2022-12-15T17:14:13.273Z,28.15
2022-12-15T17:16:41.644Z,27.73
2022-12-15T17:19:09.992Z,28.95
2022-12-15T17:21:46.742Z,26.30
2022-12-15T17:24:20.026Z,28.10
2022-12-15T17:26:49.044Z,27.00
2022-12-15T17:29:20.967Z,27.40
2022-12-15T17:31:49.616Z,28.23
2022-12-15T17:34:30.392Z,28.08
2022-12-15T17:37:00.732Z,28.27
2022-12-15T17:39:32.035Z,25.58
2022-12-15T17:42:01.853Z,28.35
2022-12-15T17:44:35.111Z,28.35
2022-12-15T17:47:05.421Z,28.02
2022-12-15T17:49:37.224Z,28.83
2022-12-15T17:52:21.236Z,26.38
2022-12-15T17:54:52.180Z,26.83
2022-12-15T17:57:20.672Z,26.80
2022-12-15T17:59:49.363Z,28.92
2022-12-15T18:02:17.868Z,28.90
2022-12-15T18:04:46.749Z,30.63
2022-12-15T18:07:18.578Z,29.63
2022-12-15T18:09:47.673Z,27.58
2022-12-15T18:12:23.349Z,28.05
2022-12-15T18:14:51.996Z,27.23
2022-12-15T18:17:20.904Z,27.33
2022-12-15T18:19:49.768Z,26.52
2022-12-15T18:22:23.174Z,31.98
2022-12-15T18:24:54.347Z,30.00
2022-12-15T18:27:26.607Z,29.73
2022-12-15T18:29:55.560Z,32.90
2022-12-15T18:32:27.688Z,33.85
2022-12-15T18:34:56.493Z,32.03
2022-12-15T18:37:25.698Z,30.80
2022-12-15T18:39:56.237Z,32.58
2022-12-15T18:42:30.904Z,30.80
2022-12-15T18:45:00.341Z,27.38
2022-12-15T18:47:28.708Z,27.70
2022-12-15T18:49:57.269Z,31.40
2022-12-15T18:52:31.454Z,38.33
2022-12-15T18:55:01.480Z,35.90
2022-12-15T18:57:33.655Z,30.27
2022-12-15T19:00:08.635Z,29.05
2022-12-15T19:02:37.210Z,26.15
2022-12-15T19:05:06.585Z,26.88
2022-12-15T19:07:36.677Z,25.98
2022-12-15T19:10:05.851Z,25.25
2022-12-15T19:12:35.884Z,28.23
2022-12-15T19:15:04.338Z,27.20
2022-12-15T19:17:50.200Z,25.90
2022-12-15T19:20:38.266Z,26.63
2022-12-15T19:23:08.230Z,27.58
2022-12-15T19:25:37.286Z,29.30
2022-12-15T19:28:14.957Z,28.02
2022-12-15T19:30:43.618Z,28.30
2022-12-15T19:33:12.877Z,29.55
2022-12-15T19:35:44.731Z,26.95
2022-12-15T19:38:24.753Z,31.50
2022-12-15T19:40:54.836Z,29.27
2022-12-15T19:43:25.917Z,30.65
2022-12-15T19:45:54.872Z,28.27
2022-12-15T19:48:24.379Z,27.05
2022-12-15T19:50:55.829Z,28.13
2022-12-15T19:53:28.158Z,29.40
2022-12-15T19:55:59.992Z,26.60
2022-12-15T19:58:32.592Z,27.45
2022-12-15T20:01:05.591Z,26.65
2022-12-15T20:03:35.221Z,27.55
2022-12-15T20:06:05.492Z,27.40
2022-12-15T20:08:37.786Z,25.63
2022-12-15T20:11:10.778Z,26.88
2022-12-15T20:13:40.486Z,27.25
2022-12-15T20:16:10.564Z,25.88
2022-12-15T20:18:40.535Z,42.28
2022-12-15T20:21:11.913Z,32.80
2022-12-15T20:23:49.677Z,26.48
2022-12-15T20:26:18.909Z,26.45
2022-12-15T20:28:49.304Z,25.73
2022-12-15T20:31:21.213Z,28.30
2022-12-15T20:33:50.484Z,26.83
2022-12-15T20:36:22.009Z,26.20
2022-12-15T20:38:50.413Z,28.40
2022-12-15T20:41:20.991Z,27.67
2022-12-15T20:43:51.836Z,24.88
2022-12-15T20:46:24.370Z,24.45
2022-12-15T20:48:55.731Z,25.60
2022-12-15T20:51:26.967Z,23.37
2022-12-15T20:53:58.370Z,24.20
2022-12-15T20:56:27.756Z,26.77
2022-12-15T20:58:59.195Z,22.38
2022-12-15T21:01:31.867Z,22.20
2022-12-15T21:04:02.795Z,22.07
2022-12-15T21:06:32.264Z,22.40
2022-12-15T21:09:00.590Z,21.87
2022-12-15T21:11:33.703Z,21.30
2022-12-15T21:14:04.859Z,23.55
2022-12-15T21:16:34.335Z,21.80
2022-12-15T21:19:19.634Z,20.98
2022-12-15T21:21:53.013Z,21.98
2022-12-15T21:24:27.207Z,21.17
2022-12-15T21:26:55.818Z,21.90
2022-12-15T21:29:28.521Z,22.00
2022-12-15T21:31:57.424Z,22.83
2022-12-15T21:34:25.863Z,22.90
2022-12-15T21:36:55.588Z,24.90
2022-12-15T21:39:29.703Z,24.13
2022-12-15T21:42:01.991Z,23.92
2022-12-15T21:44:31.642Z,22.50
2022-12-15T21:47:00.034Z,21.85
2022-12-15T21:49:27.361Z,19.77
2022-12-15T21:51:59.494Z,20.13
2022-12-15T21:54:31.779Z,19.77
2022-12-15T21:57:00.910Z,19.60
2022-12-15T21:59:33.684Z,20.40
2022-12-15T22:02:02.903Z,20.10
2022-12-15T22:04:34.905Z,19.87
2022-12-15T22:07:03.729Z,18.70
2022-12-15T22:09:32.039Z,21.77
2022-12-15T22:12:01.306Z,21.90
2022-12-15T22:14:34.715Z,21.10
2022-12-15T22:17:13.726Z,22.37
2022-12-15T22:19:42.122Z,20.38
2022-12-15T22:22:10.863Z,19.67
2022-12-15T22:24:39.392Z,19.80
2022-12-15T22:27:17.053Z,22.85
2022-12-15T22:29:47.192Z,20.92
2022-12-15T22:32:17.195Z,21.02
2022-12-15T22:34:45.620Z,21.45
2022-12-15T22:37:14.057Z,19.80
2022-12-15T22:39:42.728Z,19.17
2022-12-15T22:42:16.374Z,20.33
2022-12-15T22:44:46.318Z,20.30
2022-12-15T22:47:14.983Z,20.35
2022-12-15T22:49:43.446Z,21.15
2022-12-15T22:52:18.376Z,20.85
2022-12-15T22:54:47.787Z,21.58
2022-12-15T22:57:23.327Z,20.70
2022-12-15T23:00:00.787Z,19.90
2022-12-15T23:02:33.522Z,21.17
2022-12-15T23:05:02.895Z,21.35
2022-12-15T23:07:31.415Z,23.07
2022-12-15T23:10:13.681Z,21.83
2022-12-15T23:12:42.159Z,20.13
2022-12-15T23:15:30.062Z,20.00
2022-12-15T23:17:58.528Z,21.17
2022-12-15T23:20:27.114Z,20.17
2022-12-15T23:22:55.531Z,20.50
2022-12-15T23:25:24.181Z,21.65
2022-12-15T23:27:52.638Z,20.02
2022-12-15T23:30:22.570Z,20.52
2022-12-15T23:32:51.251Z,21.80
2022-12-15T23:35:23.896Z,22.15
2022-12-15T23:37:52.241Z,23.08
2022-12-15T23:40:22.245Z,21.60
2022-12-15T23:42:51.631Z,20.23
2022-12-15T23:45:22.121Z,21.08
2022-12-15T23:47:50.499Z,23.83
2022-12-15T23:50:19.669Z,19.70
2022-12-15T23:52:51.717Z,20.98
2022-12-15T23:55:20.539Z,21.20
2022-12-15T23:57:48.840Z,19.73
